Main page
METAR-TAF:

METAR-TAF

Airports :

Rajkot Airport

Rajkot, India

latitude: 22-18N, longitude: 070-47E, elevation: 134 m

Current weather observation

The report was made 1 hour and 31 minutes ago, at 03:00 UTC
Wind 8 kt from the Southwest
Temperature 26°C
Humidity 84%
Pressure 1007 hPa
Visibility: 6000 m

METAR: VARK 250300Z 23008KT 6000 NSC 26/23 Q1007 NOSIG

Time: 10:01 (04:31 UTC)

Forecast

The report was made 2 hours and 31 minutes ago, at 02:00 UTC
Forecast valid from 25 at 03 UTC to 25 at 12 UTC
Wind 4 kt from the South/Southwest
Visibility: 6000 m
Becoming
from 25 at 07 UTC to 25 at 09 UTC
Wind 5 kt from the East/Southeast

TAF: VARK 250200Z 2503/2512 20004KT 6000 NSC BECMG 2507/2509 123005KT

Weather observations and forecasts of more than 4000 airports (METAR and TAF reports).

The available stations are represented by yellow and red dots on the map.

Hover mouse over dot to see the name of the station.

Then click to see weather observations and forecasts.

To change the map : click on the green buttons with a black cross to zoom in, on the green button with a dash to zoom out, or on the green arrows for adjacent maps.


METAR-TAF: